DucheSS Of Scandinavia — OUZI2 — position and weather

sailwx.info

Track history (hours):
 
Tides and Currents Weather Stations Pressure Air Temp Water Temp Dewpoint Dewpoint Depression Visibility Wind Speed Wind Dir Waves Ship Positions

DucheSS Of Scandinavia

Operator: DFDS A/S

Last reported at 2018-Feb-26 00:59 UTC. Time now 2018-Feb-26 01:12 UTC.
Position N 59°06' E 010°14'.

Length 134 m; draft 5.4 m.

Type: Passenger vessel. MMSI: 219002929.

Date/timePositionNaut miles runAvg speedWind from/ knotsBaromVisibWave heightAir tempDewpointWater temp
2018-Feb-26 00:59N 59°06' E 010°14'0 0.0
2018-Feb-26 00:29N 59°06' E 010°14'0 0.0
2018-Feb-25 23:59N 59°06' E 010°14'0 0.0
2018-Feb-25 23:30N 59°06' E 010°14'0 0.0
2018-Feb-25 23:00N 59°06' E 010°14'0 0.0
2018-Feb-25 22:30N 59°06' E 010°14'0 0.0
2018-Feb-25 21:58N 59°06' E 010°14'0 0.0
2018-Feb-25 21:28N 59°06' E 010°14'0 0.0
2018-Feb-25 20:58N 59°06' E 010°14'0 0.0
2018-Feb-25 20:30N 59°06' E 010°14'1 2.8
2018-Feb-25 20:00N 59°08' E 010°14'3 5.1
2018-Feb-25 19:30N 59°05' E 010°15'713.4
2018-Feb-25 19:01N 59°01' E 010°25'816.3
2018-Feb-25 18:31N 59°01' E 010°41'816.5
2018-Feb-25 18:01N 59°00' E 010°56'815.5
2018-Feb-25 17:30N 58°56' E 011°09'1 1.2
2018-Feb-25 17:00N 58°56' E 011°10'4 7.3
2018-Feb-25 16:30N 58°57' E 011°03'815.7
2018-Feb-25 16:00N 59°01' E 010°51'815.8
2018-Feb-25 15:30N 59°00' E 010°35'816.0
2018-Feb-25 15:01N 59°01' E 010°20'713.2
2018-Feb-25 14:31N 59°07' E 010°14'1 1.6
2018-Feb-25 14:00N 59°08' E 010°14'0 0.0
2018-Feb-25 13:30N 59°08' E 010°14'5 9.7
2018-Feb-25 13:01N 59°03' E 010°15'713.9
2018-Feb-25 12:31N 59°01' E 010°28'714.9
2018-Feb-25 12:01N 59°01' E 010°42'714.9
2018-Feb-25 11:31N 59°00' E 010°57'714.9
2018-Feb-25 11:00N 58°56' E 011°08'1 1.8
2018-Feb-25 10:30N 58°56' E 011°10'0 0.0
2018-Feb-25 10:00N 58°56' E 011°10'611.2
2018-Feb-25 09:30N 58°59' E 011°01'816.6
2018-Feb-25 09:01N 59°02' E 010°46'917.1
2018-Feb-25 08:31N 59°01' E 010°29'815.1
2018-Feb-25 07:59N 59°03' E 010°15'4 9.1
2018-Feb-25 07:30N 59°08' E 010°14'0 0.0
2018-Feb-25 07:00N 59°08' E 010°14'1 1.2
2018-Feb-25 06:30N 59°07' E 010°14'1 1.5
2018-Feb-25 05:58N 59°06' E 010°14'0 0.0
2018-Feb-25 05:28N 59°06' E 010°14'0 0.0
2018-Feb-25 04:58N 59°06' E 010°14'0 0.0
2018-Feb-25 04:29N 59°06' E 010°14'0 0.0
2018-Feb-25 03:59N 59°06' E 010°14'0 0.0
2018-Feb-25 03:29N 59°06' E 010°14'0 0.0
2018-Feb-25 03:00N 59°06' E 010°14'0 0.0
2018-Feb-25 02:30N 59°06' E 010°14'0 0.0
2018-Feb-25 02:00N 59°06' E 010°14'0 0.0
2018-Feb-25 01:28N 59°06' E 010°14'0 0.0
2018-Feb-25 00:58N 59°06' E 010°14'0 0.0
2018-Feb-25 00:28N 59°06' E 010°14'0 0.0
2018-Feb-24 23:59N 59°06' E 010°14'0 0.0
2018-Feb-24 23:29N 59°06' E 010°14'0 0.0
2018-Feb-24 22:59N 59°06' E 010°14'0 0.0
2018-Feb-24 22:30N 59°06' E 010°14'0 0.0
2018-Feb-24 21:57N 59°06' E 010°14'0 0.0
2018-Feb-24 21:30N 59°06' E 010°14'0 0.0
2018-Feb-24 20:58N 59°06' E 010°14'1 2.8
2018-Feb-24 20:30N 59°07' E 010°14'0 0.2
2018-Feb-24 20:01N 59°08' E 010°14'611.9
2018-Feb-24 19:31N 59°02' E 010°16'917.1
2018-Feb-24 19:00N 59°01' E 010°33'917.1
2018-Feb-24 18:31N 59°01' E 010°49'816.8
2018-Feb-24 18:01N 58°57' E 011°04'4 7.2
2018-Feb-24 17:30N 58°56' E 011°10'0 0.0
2018-Feb-24 17:00N 58°56' E 011°10'4 7.7
2018-Feb-24 16:30N 58°57' E 011°03'815.7
2018-Feb-24 16:00N 59°01' E 010°50'815.8
2018-Feb-24 15:30N 59°00' E 010°35'815.5
2018-Feb-24 15:00N 59°01' E 010°20'713.2
2018-Feb-24 14:31N 59°07' E 010°14'1 1.9
2018-Feb-24 14:00N 59°08' E 010°14'0 0.0
2018-Feb-24 13:30N 59°08' E 010°14'510.6
2018-Feb-24 13:00N 59°02' E 010°16'714.2
2018-Feb-24 12:30N 59°01' E 010°29'715.0
2018-Feb-24 12:01N 59°01' E 010°43'714.3
2018-Feb-24 11:31N 59°00' E 010°57'815.2
2018-Feb-24 11:00N 58°56' E 011°09'1 1.4
2018-Feb-24 10:30N 58°56' E 011°10'0 0.0
2018-Feb-24 10:00N 58°56' E 011°10'611.4
2018-Feb-24 09:30N 58°59' E 011°01'816.2
2018-Feb-24 09:01N 59°02' E 010°46'816.8
2018-Feb-24 08:31N 59°01' E 010°30'815.4
2018-Feb-24 08:01N 59°02' E 010°15'510.5
2018-Feb-24 07:30N 59°08' E 010°14'0 0.1
2018-Feb-24 07:01N 59°08' E 010°14'1 2.1
2018-Feb-24 06:30N 59°07' E 010°14'0 0.7
2018-Feb-24 06:00N 59°06' E 010°14'0 0.0
2018-Feb-24 05:28N 59°06' E 010°14'0 0.0
2018-Feb-24 04:58N 59°06' E 010°14'0 0.0
2018-Feb-24 04:28N 59°06' E 010°14'0 0.0
2018-Feb-24 03:59N 59°06' E 010°14'0 0.0
2018-Feb-24 03:29N 59°06' E 010°14'0 0.0
2018-Feb-24 02:59N 59°06' E 010°14'0 0.0
2018-Feb-24 02:30N 59°06' E 010°14'0 0.0
2018-Feb-24 02:00N 59°06' E 010°14'0 0.0
2018-Feb-24 01:30N 59°06' E 010°14'0 0.0
2018-Feb-24 00:58N 59°06' E 010°14'0 0.0
2018-Feb-24 00:28N 59°06' E 010°14'0 0.0
2018-Feb-23 23:58N 59°06' E 010°14'0 0.0
2018-Feb-23 23:29N 59°06' E 010°14'0 0.0
2018-Feb-23 22:59N 59°06' E 010°14'0 0.0
2018-Feb-23 22:29N 59°06' E 010°14'0 0.0
2018-Feb-23 22:00N 59°06' E 010°14'0 0.0
2018-Feb-23 21:30N 59°06' E 010°14'0 0.0
2018-Feb-23 21:00N 59°06' E 010°14'1 2.4
2018-Feb-23 20:30N 59°07' E 010°14'0 0.5
2018-Feb-23 20:00N 59°08' E 010°14'3 5.7
2018-Feb-23 19:31N 59°05' E 010°15'713.7
2018-Feb-23 19:01N 59°01' E 010°26'816.2
2018-Feb-23 18:31N 59°01' E 010°41'816.3
2018-Feb-23 18:01N 59°00' E 010°57'815.3
2018-Feb-23 17:30N 58°56' E 011°09'0 0.8
2018-Feb-23 17:00N 58°56' E 011°10'4 7.4
2018-Feb-23 16:30N 58°57' E 011°03'714.9
2018-Feb-23 16:00N 59°01' E 010°51'815.1
2018-Feb-23 15:31N 59°01' E 010°37'816.0
2018-Feb-23 15:01N 59°01' E 010°21'713.7
2018-Feb-23 14:31N 59°07' E 010°14'1 2.0
2018-Feb-23 14:00N 59°08' E 010°14'0 0.0
2018-Feb-23 13:30N 59°08' E 010°14'510.6
2018-Feb-23 13:01N 59°02' E 010°15'714.1
2018-Feb-23 12:31N 59°01' E 010°29'714.5
2018-Feb-23 12:01N 59°01' E 010°43'714.6
2018-Feb-23 11:31N 59°00' E 010°57'714.9
2018-Feb-23 11:00N 58°56' E 011°08'1 1.9
2018-Feb-23 10:30N 58°56' E 011°10'0 0.0
2018-Feb-23 10:00N 58°56' E 011°10'612.4
2018-Feb-23 09:31N 58°59' E 011°00'816.1
2018-Feb-23 09:01N 59°02' E 010°45'816.9
2018-Feb-23 08:31N 59°00' E 010°29'815.3
2018-Feb-23 08:00N 59°03' E 010°15'5 9.2
2018-Feb-23 07:30N 59°08' E 010°14'0 0.0
2018-Feb-23 07:00N 59°08' E 010°14'0 0.7
2018-Feb-23 06:29N 59°07' E 010°14'1 2.2
2018-Feb-23 06:00N 59°06' E 010°14'0 0.0
2018-Feb-23 05:30N 59°06' E 010°14'0 0.0
2018-Feb-23 05:00N 59°06' E 010°14'0 0.0
2018-Feb-23 04:28N 59°06' E 010°14'0 0.0
2018-Feb-23 03:58N 59°06' E 010°14'0 0.0
2018-Feb-23 03:29N 59°06' E 010°14'0 0.0
2018-Feb-23 02:59N 59°06' E 010°14'0 0.0
2018-Feb-23 02:29N 59°06' E 010°14'0 0.0
2018-Feb-23 02:00N 59°06' E 010°14'0 0.0
2018-Feb-23 01:30N 59°06' E 010°14'0 0.0
2018-Feb-23 01:00N 59°06' E 010°14'0 0.0
2018-Feb-23 00:31N 59°06' E 010°14'0 0.0
2018-Feb-22 23:58N 59°06' E 010°14'0 0.0
2018-Feb-22 23:28N 59°06' E 010°14'0 0.0
2018-Feb-22 22:59N 59°06' E 010°14'0 0.0
2018-Feb-22 22:29N 59°06' E 010°14'0 0.0
2018-Feb-22 21:59N 59°06' E 010°14'0 0.0
2018-Feb-22 21:30N 59°06' E 010°14'0 0.0
2018-Feb-22 21:00N 59°06' E 010°14'0 0.2
2018-Feb-22 20:30N 59°06' E 010°14'1 2.7
2018-Feb-22 20:00N 59°08' E 010°14'3 5.3
2018-Feb-22 19:30N 59°05' E 010°15'713.8
2018-Feb-22 19:00N 59°01' E 010°25'816.5
2018-Feb-22 18:31N 59°01' E 010°41'816.3
2018-Feb-22 18:01N 59°00' E 010°57'815.5
2018-Feb-22 17:30N 58°56' E 011°10'0 0.5
2018-Feb-22 17:00N 58°56' E 011°10'4 7.3
2018-Feb-22 16:29N 58°57' E 011°03'815.5
2018-Feb-22 16:00N 59°01' E 010°51'816.0
2018-Feb-22 15:30N 59°01' E 010°35'816.6
2018-Feb-22 15:00N 59°01' E 010°19'613.0
2018-Feb-22 14:30N 59°07' E 010°14'1 1.3
2018-Feb-22 14:01N 59°08' E 010°14'0 0.0
2018-Feb-22 13:30N 59°08' E 010°14'510.7
2018-Feb-22 13:01N 59°02' E 010°15'714.7
2018-Feb-22 12:30N 59°01' E 010°29'815.2
2018-Feb-22 12:00N 59°02' E 010°44'815.2
2018-Feb-22 11:31N 58°60' E 010°58'713.9
2018-Feb-22 11:00N 58°56' E 011°10'0 0.2
2018-Feb-22 10:30N 58°56' E 011°10'0 0.0
2018-Feb-22 10:00N 58°56' E 011°10'611.7
2018-Feb-22 09:30N 58°59' E 011°01'816.2
2018-Feb-22 09:01N 59°02' E 010°46'816.6
2018-Feb-22 08:30N 59°00' E 010°30'815.9
2018-Feb-22 08:01N 59°02' E 010°15'510.4
2018-Feb-22 07:30N 59°08' E 010°14'0 0.0
2018-Feb-22 07:01N 59°08' E 010°14'1 1.1
2018-Feb-22 06:30N 59°07' E 010°14'1 1.7
2018-Feb-22 05:59N 59°06' E 010°14'0 0.0
2018-Feb-22 05:30N 59°06' E 010°14'0 0.0
2018-Feb-22 05:00N 59°06' E 010°14'0 0.0
2018-Feb-22 04:30N 59°06' E 010°14'0 0.0
2018-Feb-22 03:58N 59°06' E 010°14'0 0.0
2018-Feb-22 03:28N 59°06' E 010°14'0 0.0
2018-Feb-22 02:58N 59°06' E 010°14'0 0.0
2018-Feb-22 02:29N 59°06' E 010°14'0 0.0
2018-Feb-22 01:59N 59°06' E 010°14'0 0.0
2018-Feb-22 01:29N 59°06' E 010°14'0 0.0
2018-Feb-22 01:00N 59°06' E 010°14'0 0.0
2018-Feb-22 00:30N 59°06' E 010°14'0 0.0
2018-Feb-22 00:00N 59°06' E 010°14'0 0.0
2018-Feb-21 23:28N 59°06' E 010°14'0 0.0
2018-Feb-21 22:58N 59°06' E 010°14'0 0.0
2018-Feb-21 22:25N 59°06' E 010°14'0 0.0
2018-Feb-21 21:59N 59°06' E 010°14'0 0.0
2018-Feb-21 21:29N 59°06' E 010°14'0 0.0
2018-Feb-21 20:59N 59°06' E 010°14'0 0.5
2018-Feb-21 20:31N 59°06' E 010°14'1 2.4
2018-Feb-21 20:01N 59°08' E 010°14'3 6.3
2018-Feb-21 19:31N 59°04' E 010°15'713.3
2018-Feb-21 19:00N 59°01' E 010°26'815.8
2018-Feb-21 18:31N 59°01' E 010°41'816.2
2018-Feb-21 18:01N 59°00' E 010°57'815.6
2018-Feb-21 17:30N 58°56' E 011°09'1 1.4
2018-Feb-21 17:00N 58°56' E 011°10'4 6.9
2018-Feb-21 16:30N 58°57' E 011°04'715.1
2018-Feb-21 16:01N 59°01' E 010°51'815.4
2018-Feb-21 15:31N 59°01' E 010°36'816.9
2018-Feb-21 15:01N 59°01' E 010°20'713.6
2018-Feb-21 14:31N 59°07' E 010°14'1 1.4
2018-Feb-21 14:00N 59°08' E 010°14'0 0.0
2018-Feb-21 13:31N 59°08' E 010°14'4 8.5
2018-Feb-21 13:00N 59°03' E 010°15'713.4
2018-Feb-21 12:31N 59°01' E 010°27'815.2
2018-Feb-21 12:00N 59°01' E 010°42'815.2
2018-Feb-21 11:30N 59°00' E 010°57'815.3
2018-Feb-21 11:01N 58°56' E 011°09'1 1.6
2018-Feb-21 10:31N 58°56' E 011°10'0 0.0
2018-Feb-21 10:00N 58°56' E 011°10'5 9.6
2018-Feb-21 09:31N 58°58' E 011°02'815.9
2018-Feb-21 09:01N 59°02' E 010°48'815.9
2018-Feb-21 08:30N 59°01' E 010°33'816.3
2018-Feb-21 08:00N 59°01' E 010°17'612.3
2018-Feb-21 07:30N 59°07' E 010°14'0 0.2
2018-Feb-21 07:00N 59°08' E 010°14'0 0.4
2018-Feb-21 06:31N 59°07' E 010°14'1 2.5
2018-Feb-21 06:01N 59°06' E 010°14'0 0.0
2018-Feb-21 05:31N 59°06' E 010°14'0 0.0
2018-Feb-21 05:01N 59°06' E 010°14'0 0.0
2018-Feb-21 04:30N 59°06' E 010°14'0 0.0
2018-Feb-21 04:01N 59°06' E 010°14'0 0.0
2018-Feb-21 03:31N 59°06' E 010°14'0 0.0
2018-Feb-21 03:01N 59°06' E 010°14'0 0.0
2018-Feb-21 02:30N 59°06' E 010°14'0 0.0
2018-Feb-21 02:00N 59°06' E 010°14'0 0.0
2018-Feb-21 01:31N 59°06' E 010°14'0 0.0
2018-Feb-21 01:01N 59°06' E 010°14'0 0.0
2018-Feb-21 00:31N 59°06' E 010°14'0 0.0
2018-Feb-21 00:01N 59°06' E 010°14'0 0.0
2018-Feb-20 23:31N 59°06' E 010°14'0 0.0
2018-Feb-20 23:01N 59°06' E 010°14'0 0.0
2018-Feb-20 22:30N 59°06' E 010°14'0 0.0
2018-Feb-20 21:59N 59°06' E 010°14'0 0.0
2018-Feb-20 21:31N 59°06' E 010°14'0 0.0
2018-Feb-20 21:01N 59°06' E 010°14'1 2.9
2018-Feb-20 20:31N 59°08' E 010°14'0 0.0
2018-Feb-20 20:00N 59°08' E 010°14'4 7.5
2018-Feb-20 19:31N 59°04' E 010°15'713.4
2018-Feb-20 19:01N 59°01' E 010°26'815.9
2018-Feb-20 18:31N 59°01' E 010°42'815.2
2018-Feb-20 18:00N 59°00' E 010°56'815.2
2018-Feb-20 17:30N 58°56' E 011°08'1 1.9
2018-Feb-20 17:01N 58°56' E 011°10'3 5.9
2018-Feb-20 16:31N 58°56' E 011°04'815.1
2018-Feb-20 16:01N 59°01' E 010°52'815.2
2018-Feb-20 15:30N 59°01' E 010°38'815.2
2018-Feb-20 15:01N 59°01' E 010°23'713.5
2018-Feb-20 14:31N 59°06' E 010°14'2 3.5
2018-Feb-20 14:01N 59°08' E 010°14'0 0.0
2018-Feb-20 13:31N 59°08' E 010°14'4 8.6
2018-Feb-20 13:01N 59°03' E 010°15'713.8
2018-Feb-20 12:30N 59°01' E 010°27'815.1
2018-Feb-20 12:01N 59°01' E 010°42'815.2
2018-Feb-20 11:31N 59°00' E 010°57'815.2
2018-Feb-20 11:01N 58°56' E 011°09'1 1.7
2018-Feb-20 10:30N 58°56' E 011°10'0 0.0
2018-Feb-20 10:01N 58°56' E 011°10'5 9.5
2018-Feb-20 09:30N 58°58' E 011°02'816.7
2018-Feb-20 09:01N 59°02' E 010°47'816.6
2018-Feb-20 08:31N 59°00' E 010°31'816.5
2018-Feb-20 08:01N 59°02' E 010°16'611.5
2018-Feb-20 07:30N 59°08' E 010°14'0 0.1
2018-Feb-20 07:00N 59°08' E 010°14'0 0.1
2018-Feb-20 06:31N 59°08' E 010°14'1 2.7
2018-Feb-20 05:59N 59°06' E 010°14'0 0.0
2018-Feb-20 05:29N 59°06' E 010°14'0 0.0
2018-Feb-20 05:00N 59°06' E 010°14'0 0.0
2018-Feb-20 04:30N 59°06' E 010°14'0 0.0
2018-Feb-20 04:00N 59°06' E 010°14'0 0.0
2018-Feb-20 03:28N 59°06' E 010°14'0 0.0
2018-Feb-20 02:58N 59°06' E 010°14'0 0.0
2018-Feb-20 02:28N 59°06' E 010°14'0 0.0
2018-Feb-20 01:59N 59°06' E 010°14'0 0.0
2018-Feb-20 01:29N 59°06' E 010°14'0 0.0
2018-Feb-20 00:59N 59°06' E 010°14'0 0.0
2018-Feb-20 00:30N 59°06' E 010°14'0 0.0
2018-Feb-20 00:00N 59°06' E 010°14'0 0.0
2018-Feb-19 23:30N 59°06' E 010°14'0 0.0
2018-Feb-19 22:58N 59°06' E 010°14'0 0.0
2018-Feb-19 22:28N 59°06' E 010°14'0 0.0
2018-Feb-19 21:58N 59°06' E 010°14'0 0.0
2018-Feb-19 21:30N 59°06' E 010°14'0 0.0
2018-Feb-19 21:00N 59°06' E 010°14'0 0.7
2018-Feb-19 20:31N 59°07' E 010°14'1 2.1
2018-Feb-19 20:00N 59°08' E 010°14'3 6.3
2018-Feb-19 19:31N 59°05' E 010°15'713.1
2018-Feb-19 19:00N 59°01' E 010°25'815.7
2018-Feb-19 18:30N 59°01' E 010°40'815.7
2018-Feb-19 18:01N 59°00' E 010°56'815.6
2018-Feb-19 17:31N 58°56' E 011°08'1 2.3
2018-Feb-19 17:01N 58°56' E 011°10'3 6.0
2018-Feb-19 16:30N 58°56' E 011°04'815.4
2018-Feb-19 16:00N 59°01' E 010°52'815.5
2018-Feb-19 15:30N 59°01' E 010°37'816.2
2018-Feb-19 15:01N 59°01' E 010°21'713.4
2018-Feb-19 14:30N 59°06' E 010°14'1 2.4
2018-Feb-19 14:00N 59°08' E 010°14'0 0.0
2018-Feb-19 13:30N 59°08' E 010°14'4 8.4
2018-Feb-19 13:01N 59°04' E 010°15'713.5
2018-Feb-19 12:30N 59°01' E 010°27'815.5
2018-Feb-19 12:00N 59°02' E 010°42'815.2
2018-Feb-19 11:31N 59°01' E 010°56'815.9
2018-Feb-19 11:00N 58°56' E 011°08'1 1.8
2018-Feb-19 10:31N 58°56' E 011°10'0 0.0
2018-Feb-19 10:01N 58°56' E 011°10'510.0
2018-Feb-19 09:30N 58°58' E 011°02'815.8
2018-Feb-19 09:00N 59°02' E 010°48'815.4
2018-Feb-19 08:30N 59°01' E 010°33'816.0
2018-Feb-19 08:01N 59°01' E 010°17'612.4
2018-Feb-19 07:30N 59°07' E 010°14'0 0.3
2018-Feb-19 07:00N 59°08' E 010°14'1 2.2
2018-Feb-19 06:30N 59°06' E 010°14'0 0.7
2018-Feb-19 06:00N 59°06' E 010°14'0 0.0
2018-Feb-19 05:29N 59°06' E 010°14'0 0.0
2018-Feb-19 04:59N 59°06' E 010°14'0 0.0
2018-Feb-19 04:29N 59°06' E 010°14'0 0.0
2018-Feb-19 04:00N 59°06' E 010°14'0 0.0
2018-Feb-19 03:30N 59°06' E 010°14'0 0.0
2018-Feb-19 03:00N 59°06' E 010°14'0 0.0
2018-Feb-19 02:28N 59°06' E 010°14'0 0.0
2018-Feb-19 01:58N 59°06' E 010°14'0 0.0
2018-Feb-19 01:28N 59°06' E 010°14'0 0.0
2018-Feb-19 00:59N 59°06' E 010°14'0 0.0
2018-Feb-19 00:29N 59°06' E 010°14'0 0.0
2018-Feb-18 23:59N 59°06' E 010°14'0 0.0
2018-Feb-18 23:30N 59°06' E 010°14'0 0.0
2018-Feb-18 23:00N 59°06' E 010°14'0 0.0
2018-Feb-18 22:30N 59°06' E 010°14'0 0.0
2018-Feb-18 21:58N 59°06' E 010°14'0 0.0
2018-Feb-18 21:28N 59°06' E 010°14'0 0.0
2018-Feb-18 20:58N 59°06' E 010°14'0 0.0
2018-Feb-18 20:31N 59°06' E 010°14'1 2.8
2018-Feb-18 20:00N 59°08' E 010°14'4 7.1
2018-Feb-18 19:30N 59°04' E 010°15'714.0
2018-Feb-18 19:00N 59°01' E 010°27'815.8
2018-Feb-18 18:31N 59°01' E 010°42'815.6
2018-Feb-18 18:01N 59°00' E 010°57'714.9
2018-Feb-18 17:31N 58°56' E 011°09'1 1.5
2018-Feb-18 17:00N 58°56' E 011°10'3 6.4
2018-Feb-18 16:31N 58°57' E 011°04'714.0
2018-Feb-18 16:01N 59°01' E 010°53'714.3
2018-Feb-18 15:31N 59°01' E 010°39'816.2
2018-Feb-18 15:01N 59°01' E 010°23'713.2
2018-Feb-18 14:30N 59°05' E 010°14'2 4.3
2018-Feb-18 14:00N 59°08' E 010°14'0 0.0
2018-Feb-18 13:31N 59°08' E 010°14'4 7.3
2018-Feb-18 13:00N 59°04' E 010°15'713.9
2018-Feb-18 12:31N 59°01' E 010°27'815.1
2018-Feb-18 12:01N 59°01' E 010°41'715.0
2018-Feb-18 11:31N 59°00' E 010°56'815.7
2018-Feb-18 11:01N 58°56' E 011°08'1 2.0
2018-Feb-18 10:31N 58°56' E 011°10'0 0.0
2018-Feb-18 10:01N 58°56' E 011°10'5 9.2
2018-Feb-18 09:31N 58°58' E 011°02'815.1
2018-Feb-18 09:01N 59°01' E 010°49'815.5
2018-Feb-18 08:31N 59°01' E 010°34'816.6
2018-Feb-18 08:01N 59°01' E 010°18'612.4
2018-Feb-18 07:30N 59°07' E 010°14'0 0.8
2018-Feb-18 07:01N 59°08' E 010°14'0 1.0
2018-Feb-18 06:30N 59°07' E 010°14'1 1.9
2018-Feb-18 06:00N 59°06' E 010°14'0 0.0
2018-Feb-18 05:30N 59°06' E 010°14'0 0.0
2018-Feb-18 04:58N 59°06' E 010°14'0 0.0
2018-Feb-18 04:28N 59°06' E 010°14'0 0.0
2018-Feb-18 03:58N 59°06' E 010°14'0 0.0
2018-Feb-18 03:23N 59°06' E 010°14'0 0.0
2018-Feb-18 02:59N 59°06' E 010°14'0 0.0
2018-Feb-18 02:29N 59°06' E 010°14'0 0.0
2018-Feb-18 02:00N 59°06' E 010°14'0 0.0
2018-Feb-18 01:30N 59°06' E 010°14'0 0.0
2018-Feb-18 01:00N 59°06' E 010°14'0 0.0
2018-Feb-18 00:30N 59°06' E 010°14'0 0.0
2018-Feb-18 00:01N 59°06' E 010°14'0 0.0
2018-Feb-17 23:31N 59°06' E 010°14'0 0.0
2018-Feb-17 23:01N 59°06' E 010°14'0 0.0
2018-Feb-17 22:31N 59°06' E 010°14'0 0.0
2018-Feb-17 22:00N 59°06' E 010°14'0 0.0
2018-Feb-17 21:30N 59°06' E 010°14'0 0.0
2018-Feb-17 21:01N 59°06' E 010°14'1 2.6
2018-Feb-17 20:30N 59°07' E 010°14'0 0.2
2018-Feb-17 20:01N 59°08' E 010°14'3 6.3
2018-Feb-17 19:31N 59°04' E 010°15'713.5
2018-Feb-17 19:01N 59°01' E 010°26'816.2
2018-Feb-17 18:31N 59°01' E 010°42'815.5
2018-Feb-17 18:01N 59°00' E 010°57'815.2
2018-Feb-17 17:31N 58°56' E 011°08'1 1.8
2018-Feb-17 17:00N 58°56' E 011°10'3 6.2
2018-Feb-17 16:31N 58°57' E 011°04'714.5
2018-Feb-17 16:01N 59°01' E 010°53'815.3
2018-Feb-17 15:31N 59°01' E 010°38'815.5
2018-Feb-17 15:01N 59°01' E 010°23'713.5
2018-Feb-17 14:30N 59°06' E 010°14'2 3.3
2018-Feb-17 14:00N 59°08' E 010°14'0 0.0
2018-Feb-17 13:30N 59°08' E 010°14'4 7.4
2018-Feb-17 13:01N 59°04' E 010°15'713.5
2018-Feb-17 12:31N 59°01' E 010°26'815.5
2018-Feb-17 12:01N 59°01' E 010°41'714.9
2018-Feb-17 11:31N 59°00' E 010°56'815.7
2018-Feb-17 11:01N 58°56' E 011°08'1 1.9
2018-Feb-17 10:31N 58°56' E 011°10'0 0.0
2018-Feb-17 10:01N 58°56' E 011°10'612.4
2018-Feb-17 09:31N 58°59' E 010°60'816.6
2018-Feb-17 09:00N 59°02' E 010°44'817.0
2018-Feb-17 08:31N 59°01' E 010°28'714.9
2018-Feb-17 08:01N 59°04' E 010°15'4 7.8
2018-Feb-17 07:30N 59°08' E 010°14'0 0.0
2018-Feb-17 07:00N 59°08' E 010°14'1 1.6
2018-Feb-17 06:30N 59°07' E 010°14'1 1.3
2018-Feb-17 06:00N 59°06' E 010°14'0 0.0
2018-Feb-17 05:28N 59°06' E 010°14'0 0.0
2018-Feb-17 04:58N 59°06' E 010°14'0 0.0
2018-Feb-17 04:28N 59°06' E 010°14'0 0.0
2018-Feb-17 03:59N 59°06' E 010°14'0 0.0
2018-Feb-17 03:29N 59°06' E 010°14'0 0.0
2018-Feb-17 02:59N 59°06' E 010°14'0 0.0
2018-Feb-17 02:30N 59°06' E 010°14'0 0.0
2018-Feb-17 02:00N 59°06' E 010°14'0 0.0
2018-Feb-17 01:30N 59°06' E 010°14'0 0.0
2018-Feb-17 00:58N 59°06' E 010°14'0 0.0
2018-Feb-17 00:28N 59°06' E 010°14'0 0.0
2018-Feb-16 23:58N 59°06' E 010°14'0 0.0
2018-Feb-16 23:29N 59°06' E 010°14'0 0.0
2018-Feb-16 22:59N 59°06' E 010°14'0 0.0
2018-Feb-16 22:29N 59°06' E 010°14'0 0.0
2018-Feb-16 22:00N 59°06' E 010°14'0 0.0
2018-Feb-16 21:30N 59°06' E 010°14'0 0.0
2018-Feb-16 21:00N 59°06' E 010°14'1 1.6
2018-Feb-16 20:30N 59°07' E 010°14'1 1.3
2018-Feb-16 20:01N 59°08' E 010°14'3 6.3
2018-Feb-16 19:30N 59°04' E 010°15'612.9
2018-Feb-16 19:01N 59°01' E 010°25'815.7
2018-Feb-16 18:31N 59°01' E 010°40'815.8
2018-Feb-16 18:01N 59°00' E 010°56'815.6
2018-Feb-16 17:31N 58°56' E 011°08'1 2.2
2018-Feb-16 17:00N 58°56' E 011°10'3 5.6
2018-Feb-16 16:31N 58°56' E 011°05'714.8
2018-Feb-16 16:01N 59°01' E 010°53'815.1
2018-Feb-16 15:31N 59°01' E 010°38'815.7
2018-Feb-16 15:01N 59°01' E 010°23'713.4
2018-Feb-16 14:30N 59°06' E 010°14'2 4.1
2018-Feb-16 14:01N 59°08' E 010°14'0 0.0
2018-Feb-16 13:30N 59°08' E 010°14'4 7.9
2018-Feb-16 13:01N 59°04' E 010°15'714.1
2018-Feb-16 12:31N 59°01' E 010°27'815.8
2018-Feb-16 12:01N 59°01' E 010°43'815.8
2018-Feb-16 11:31N 58°60' E 010°58'714.4
2018-Feb-16 11:01N 58°56' E 011°09'0 0.8
2018-Feb-16 10:31N 58°56' E 011°10'0 0.0
2018-Feb-16 10:00N 58°56' E 011°10'5 9.9
2018-Feb-16 09:31N 58°58' E 011°02'815.4
2018-Feb-16 09:00N 59°02' E 010°48'815.9
2018-Feb-16 08:30N 59°01' E 010°33'815.8
2018-Feb-16 08:00N 59°01' E 010°18'612.5
2018-Feb-16 07:30N 59°07' E 010°14'0 0.5
2018-Feb-16 07:01N 59°08' E 010°14'1 2.3
2018-Feb-16 06:31N 59°06' E 010°14'0 0.6
2018-Feb-16 06:00N 59°06' E 010°14'0 0.0
2018-Feb-16 05:30N 59°06' E 010°14'0 0.0
2018-Feb-16 05:01N 59°06' E 010°14'0 0.0
2018-Feb-16 04:30N 59°06' E 010°14'0 0.0
2018-Feb-16 04:00N 59°06' E 010°14'0 0.0
2018-Feb-16 03:31N 59°06' E 010°14'0 0.0
2018-Feb-16 03:01N 59°06' E 010°14'0 0.0
2018-Feb-16 02:30N 59°06' E 010°14'0 0.0
2018-Feb-16 02:00N 59°06' E 010°14'0 0.0
2018-Feb-16 01:30N 59°06' E 010°14'0 0.0
2018-Feb-16 01:00N 59°06' E 010°14'  
Track history (hours):
 
Tides and Currents Weather Stations Pressure Air Temp Water Temp Dewpoint Dewpoint Depression Visibility Wind Speed Wind Dir Waves Ship Positions

DucheSS Of Scandinavia

Operator: DFDS A/S

Last reported at 2018-Feb-26 00:59 UTC. Time now 2018-Feb-26 01:12 UTC.
Position N 59°06' E 010°14'.

Length 134 m; draft 5.4 m.

Type: Passenger vessel. MMSI: 219002929.

Date/timePositionNaut miles runAvg speedWind from/ knotsBaromVisibWave heightAir tempDewpointWater temp
2018-Feb-26 00:59N 59°06' E 010°14'0 0.0
2018-Feb-26 00:29N 59°06' E 010°14'0 0.0
2018-Feb-25 23:59N 59°06' E 010°14'0 0.0
2018-Feb-25 23:30N 59°06' E 010°14'0 0.0
2018-Feb-25 23:00N 59°06' E 010°14'0 0.0
2018-Feb-25 22:30N 59°06' E 010°14'0 0.0
2018-Feb-25 21:58N 59°06' E 010°14'0 0.0
2018-Feb-25 21:28N 59°06' E 010°14'0 0.0
2018-Feb-25 20:58N 59°06' E 010°14'0 0.0
2018-Feb-25 20:30N 59°06' E 010°14'1 2.8
2018-Feb-25 20:00N 59°08' E 010°14'3 5.1
2018-Feb-25 19:30N 59°05' E 010°15'713.4
2018-Feb-25 19:01N 59°01' E 010°25'816.3
2018-Feb-25 18:31N 59°01' E 010°41'816.5
2018-Feb-25 18:01N 59°00' E 010°56'815.5
2018-Feb-25 17:30N 58°56' E 011°09'1 1.2
2018-Feb-25 17:00N 58°56' E 011°10'4 7.3
2018-Feb-25 16:30N 58°57' E 011°03'815.7
2018-Feb-25 16:00N 59°01' E 010°51'815.8
2018-Feb-25 15:30N 59°00' E 010°35'816.0
2018-Feb-25 15:01N 59°01' E 010°20'713.2
2018-Feb-25 14:31N 59°07' E 010°14'1 1.6
2018-Feb-25 14:00N 59°08' E 010°14'0 0.0
2018-Feb-25 13:30N 59°08' E 010°14'5 9.7
2018-Feb-25 13:01N 59°03' E 010°15'713.9
2018-Feb-25 12:31N 59°01' E 010°28'714.9
2018-Feb-25 12:01N 59°01' E 010°42'714.9
2018-Feb-25 11:31N 59°00' E 010°57'714.9
2018-Feb-25 11:00N 58°56' E 011°08'1 1.8
2018-Feb-25 10:30N 58°56' E 011°10'0 0.0
2018-Feb-25 10:00N 58°56' E 011°10'611.2
2018-Feb-25 09:30N 58°59' E 011°01'816.6
2018-Feb-25 09:01N 59°02' E 010°46'917.1
2018-Feb-25 08:31N 59°01' E 010°29'815.1
2018-Feb-25 07:59N 59°03' E 010°15'4 9.1
2018-Feb-25 07:30N 59°08' E 010°14'0 0.0
2018-Feb-25 07:00N 59°08' E 010°14'1 1.2
2018-Feb-25 06:30N 59°07' E 010°14'1 1.5
2018-Feb-25 05:58N 59°06' E 010°14'0 0.0
2018-Feb-25 05:28N 59°06' E 010°14'0 0.0
2018-Feb-25 04:58N 59°06' E 010°14'0 0.0
2018-Feb-25 04:29N 59°06' E 010°14'0 0.0
2018-Feb-25 03:59N 59°06' E 010°14'0 0.0
2018-Feb-25 03:29N 59°06' E 010°14'0 0.0
2018-Feb-25 03:00N 59°06' E 010°14'0 0.0
2018-Feb-25 02:30N 59°06' E 010°14'0 0.0
2018-Feb-25 02:00N 59°06' E 010°14'0 0.0
2018-Feb-25 01:28N 59°06' E 010°14'0 0.0
2018-Feb-25 00:58N 59°06' E 010°14'0 0.0
2018-Feb-25 00:28N 59°06' E 010°14'0 0.0
2018-Feb-24 23:59N 59°06' E 010°14'0 0.0
2018-Feb-24 23:29N 59°06' E 010°14'0 0.0
2018-Feb-24 22:59N 59°06' E 010°14'0 0.0
2018-Feb-24 22:30N 59°06' E 010°14'0 0.0
2018-Feb-24 21:57N 59°06' E 010°14'0 0.0
2018-Feb-24 21:30N 59°06' E 010°14'0 0.0
2018-Feb-24 20:58N 59°06' E 010°14'1 2.8
2018-Feb-24 20:30N 59°07' E 010°14'0 0.2
2018-Feb-24 20:01N 59°08' E 010°14'611.9
2018-Feb-24 19:31N 59°02' E 010°16'917.1
2018-Feb-24 19:00N 59°01' E 010°33'917.1
2018-Feb-24 18:31N 59°01' E 010°49'816.8
2018-Feb-24 18:01N 58°57' E 011°04'4 7.2
2018-Feb-24 17:30N 58°56' E 011°10'0 0.0
2018-Feb-24 17:00N 58°56' E 011°10'4 7.7
2018-Feb-24 16:30N 58°57' E 011°03'815.7
2018-Feb-24 16:00N 59°01' E 010°50'815.8
2018-Feb-24 15:30N 59°00' E 010°35'815.5
2018-Feb-24 15:00N 59°01' E 010°20'713.2
2018-Feb-24 14:31N 59°07' E 010°14'1 1.9
2018-Feb-24 14:00N 59°08' E 010°14'0 0.0
2018-Feb-24 13:30N 59°08' E 010°14'510.6
2018-Feb-24 13:00N 59°02' E 010°16'714.2
2018-Feb-24 12:30N 59°01' E 010°29'715.0
2018-Feb-24 12:01N 59°01' E 010°43'714.3
2018-Feb-24 11:31N 59°00' E 010°57'815.2
2018-Feb-24 11:00N 58°56' E 011°09'1 1.4
2018-Feb-24 10:30N 58°56' E 011°10'0 0.0
2018-Feb-24 10:00N 58°56' E 011°10'611.4
2018-Feb-24 09:30N 58°59' E 011°01'816.2
2018-Feb-24 09:01N 59°02' E 010°46'816.8
2018-Feb-24 08:31N 59°01' E 010°30'815.4
2018-Feb-24 08:01N 59°02' E 010°15'510.5
2018-Feb-24 07:30N 59°08' E 010°14'0 0.1
2018-Feb-24 07:01N 59°08' E 010°14'1 2.1
2018-Feb-24 06:30N 59°07' E 010°14'0 0.7
2018-Feb-24 06:00N 59°06' E 010°14'0 0.0
2018-Feb-24 05:28N 59°06' E 010°14'0 0.0
2018-Feb-24 04:58N 59°06' E 010°14'0 0.0
2018-Feb-24 04:28N 59°06' E 010°14'0 0.0
2018-Feb-24 03:59N 59°06' E 010°14'0 0.0
2018-Feb-24 03:29N 59°06' E 010°14'0 0.0
2018-Feb-24 02:59N 59°06' E 010°14'0 0.0
2018-Feb-24 02:30N 59°06' E 010°14'0 0.0
2018-Feb-24 02:00N 59°06' E 010°14'0 0.0
2018-Feb-24 01:30N 59°06' E 010°14'0 0.0
2018-Feb-24 00:58N 59°06' E 010°14'0 0.0
2018-Feb-24 00:28N 59°06' E 010°14'0 0.0
2018-Feb-23 23:58N 59°06' E 010°14'0 0.0
2018-Feb-23 23:29N 59°06' E 010°14'0 0.0
2018-Feb-23 22:59N 59°06' E 010°14'0 0.0
2018-Feb-23 22:29N 59°06' E 010°14'0 0.0
2018-Feb-23 22:00N 59°06' E 010°14'0 0.0
2018-Feb-23 21:30N 59°06' E 010°14'0 0.0
2018-Feb-23 21:00N 59°06' E 010°14'1 2.4
2018-Feb-23 20:30N 59°07' E 010°14'0 0.5
2018-Feb-23 20:00N 59°08' E 010°14'3 5.7
2018-Feb-23 19:31N 59°05' E 010°15'713.7
2018-Feb-23 19:01N 59°01' E 010°26'816.2
2018-Feb-23 18:31N 59°01' E 010°41'816.3
2018-Feb-23 18:01N 59°00' E 010°57'815.3
2018-Feb-23 17:30N 58°56' E 011°09'0 0.8
2018-Feb-23 17:00N 58°56' E 011°10'4 7.4
2018-Feb-23 16:30N 58°57' E 011°03'714.9
2018-Feb-23 16:00N 59°01' E 010°51'815.1
2018-Feb-23 15:31N 59°01' E 010°37'816.0
2018-Feb-23 15:01N 59°01' E 010°21'713.7
2018-Feb-23 14:31N 59°07' E 010°14'1 2.0
2018-Feb-23 14:00N 59°08' E 010°14'0 0.0
2018-Feb-23 13:30N 59°08' E 010°14'510.6
2018-Feb-23 13:01N 59°02' E 010°15'714.1
2018-Feb-23 12:31N 59°01' E 010°29'714.5
2018-Feb-23 12:01N 59°01' E 010°43'714.6
2018-Feb-23 11:31N 59°00' E 010°57'714.9
2018-Feb-23 11:00N 58°56' E 011°08'1 1.9
2018-Feb-23 10:30N 58°56' E 011°10'0 0.0
2018-Feb-23 10:00N 58°56' E 011°10'612.4
2018-Feb-23 09:31N 58°59' E 011°00'816.1
2018-Feb-23 09:01N 59°02' E 010°45'816.9
2018-Feb-23 08:31N 59°00' E 010°29'815.3
2018-Feb-23 08:00N 59°03' E 010°15'5 9.2
2018-Feb-23 07:30N 59°08' E 010°14'0 0.0
2018-Feb-23 07:00N 59°08' E 010°14'0 0.7
2018-Feb-23 06:29N 59°07' E 010°14'1 2.2
2018-Feb-23 06:00N 59°06' E 010°14'0 0.0
2018-Feb-23 05:30N 59°06' E 010°14'0 0.0
2018-Feb-23 05:00N 59°06' E 010°14'0 0.0
2018-Feb-23 04:28N 59°06' E 010°14'0 0.0
2018-Feb-23 03:58N 59°06' E 010°14'0 0.0
2018-Feb-23 03:29N 59°06' E 010°14'0 0.0
2018-Feb-23 02:59N 59°06' E 010°14'0 0.0
2018-Feb-23 02:29N 59°06' E 010°14'0 0.0
2018-Feb-23 02:00N 59°06' E 010°14'0 0.0
2018-Feb-23 01:30N 59°06' E 010°14'0 0.0
2018-Feb-23 01:00N 59°06' E 010°14'0 0.0
2018-Feb-23 00:31N 59°06' E 010°14'0 0.0
2018-Feb-22 23:58N 59°06' E 010°14'0 0.0
2018-Feb-22 23:28N 59°06' E 010°14'0 0.0
2018-Feb-22 22:59N 59°06' E 010°14'0 0.0
2018-Feb-22 22:29N 59°06' E 010°14'0 0.0
2018-Feb-22 21:59N 59°06' E 010°14'0 0.0
2018-Feb-22 21:30N 59°06' E 010°14'0 0.0
2018-Feb-22 21:00N 59°06' E 010°14'0 0.2
2018-Feb-22 20:30N 59°06' E 010°14'1 2.7
2018-Feb-22 20:00N 59°08' E 010°14'3 5.3
2018-Feb-22 19:30N 59°05' E 010°15'713.8
2018-Feb-22 19:00N 59°01' E 010°25'816.5
2018-Feb-22 18:31N 59°01' E 010°41'816.3
2018-Feb-22 18:01N 59°00' E 010°57'815.5
2018-Feb-22 17:30N 58°56' E 011°10'0 0.5
2018-Feb-22 17:00N 58°56' E 011°10'4 7.3
2018-Feb-22 16:29N 58°57' E 011°03'815.5
2018-Feb-22 16:00N 59°01' E 010°51'816.0
2018-Feb-22 15:30N 59°01' E 010°35'816.6
2018-Feb-22 15:00N 59°01' E 010°19'613.0
2018-Feb-22 14:30N 59°07' E 010°14'1 1.3
2018-Feb-22 14:01N 59°08' E 010°14'0 0.0
2018-Feb-22 13:30N 59°08' E 010°14'510.7
2018-Feb-22 13:01N 59°02' E 010°15'714.7
2018-Feb-22 12:30N 59°01' E 010°29'815.2
2018-Feb-22 12:00N 59°02' E 010°44'815.2
2018-Feb-22 11:31N 58°60' E 010°58'713.9
2018-Feb-22 11:00N 58°56' E 011°10'0 0.2
2018-Feb-22 10:30N 58°56' E 011°10'0 0.0
2018-Feb-22 10:00N 58°56' E 011°10'611.7
2018-Feb-22 09:30N 58°59' E 011°01'816.2
2018-Feb-22 09:01N 59°02' E 010°46'816.6
2018-Feb-22 08:30N 59°00' E 010°30'815.9
2018-Feb-22 08:01N 59°02' E 010°15'510.4
2018-Feb-22 07:30N 59°08' E 010°14'0 0.0
2018-Feb-22 07:01N 59°08' E 010°14'1 1.1
2018-Feb-22 06:30N 59°07' E 010°14'1 1.7
2018-Feb-22 05:59N 59°06' E 010°14'0 0.0
2018-Feb-22 05:30N 59°06' E 010°14'0 0.0
2018-Feb-22 05:00N 59°06' E 010°14'0 0.0
2018-Feb-22 04:30N 59°06' E 010°14'0 0.0
2018-Feb-22 03:58N 59°06' E 010°14'0 0.0
2018-Feb-22 03:28N 59°06' E 010°14'0 0.0
2018-Feb-22 02:58N 59°06' E 010°14'0 0.0
2018-Feb-22 02:29N 59°06' E 010°14'0 0.0
2018-Feb-22 01:59N 59°06' E 010°14'0 0.0
2018-Feb-22 01:29N 59°06' E 010°14'0 0.0
2018-Feb-22 01:00N 59°06' E 010°14'0 0.0
2018-Feb-22 00:30N 59°06' E 010°14'0 0.0
2018-Feb-22 00:00N 59°06' E 010°14'0 0.0
2018-Feb-21 23:28N 59°06' E 010°14'0 0.0
2018-Feb-21 22:58N 59°06' E 010°14'0 0.0
2018-Feb-21 22:25N 59°06' E 010°14'0 0.0
2018-Feb-21 21:59N 59°06' E 010°14'0 0.0
2018-Feb-21 21:29N 59°06' E 010°14'0 0.0
2018-Feb-21 20:59N 59°06' E 010°14'0 0.5
2018-Feb-21 20:31N 59°06' E 010°14'1 2.4
2018-Feb-21 20:01N 59°08' E 010°14'3 6.3
2018-Feb-21 19:31N 59°04' E 010°15'713.3
2018-Feb-21 19:00N 59°01' E 010°26'815.8
2018-Feb-21 18:31N 59°01' E 010°41'816.2
2018-Feb-21 18:01N 59°00' E 010°57'815.6
2018-Feb-21 17:30N 58°56' E 011°09'1 1.4
2018-Feb-21 17:00N 58°56' E 011°10'4 6.9
2018-Feb-21 16:30N 58°57' E 011°04'715.1
2018-Feb-21 16:01N 59°01' E 010°51'815.4
2018-Feb-21 15:31N 59°01' E 010°36'816.9
2018-Feb-21 15:01N 59°01' E 010°20'713.6
2018-Feb-21 14:31N 59°07' E 010°14'1 1.4
2018-Feb-21 14:00N 59°08' E 010°14'0 0.0
2018-Feb-21 13:31N 59°08' E 010°14'4 8.5
2018-Feb-21 13:00N 59°03' E 010°15'713.4
2018-Feb-21 12:31N 59°01' E 010°27'815.2
2018-Feb-21 12:00N 59°01' E 010°42'815.2
2018-Feb-21 11:30N 59°00' E 010°57'815.3
2018-Feb-21 11:01N 58°56' E 011°09'1 1.6
2018-Feb-21 10:31N 58°56' E 011°10'0 0.0
2018-Feb-21 10:00N 58°56' E 011°10'5 9.6
2018-Feb-21 09:31N 58°58' E 011°02'815.9
2018-Feb-21 09:01N 59°02' E 010°48'815.9
2018-Feb-21 08:30N 59°01' E 010°33'816.3
2018-Feb-21 08:00N 59°01' E 010°17'612.3
2018-Feb-21 07:30N 59°07' E 010°14'0 0.2
2018-Feb-21 07:00N 59°08' E 010°14'0 0.4
2018-Feb-21 06:31N 59°07' E 010°14'1 2.5
2018-Feb-21 06:01N 59°06' E 010°14'0 0.0
2018-Feb-21 05:31N 59°06' E 010°14'0 0.0
2018-Feb-21 05:01N 59°06' E 010°14'0 0.0
2018-Feb-21 04:30N 59°06' E 010°14'0 0.0
2018-Feb-21 04:01N 59°06' E 010°14'0 0.0
2018-Feb-21 03:31N 59°06' E 010°14'0 0.0
2018-Feb-21 03:01N 59°06' E 010°14'0 0.0
2018-Feb-21 02:30N 59°06' E 010°14'0 0.0
2018-Feb-21 02:00N 59°06' E 010°14'0 0.0
2018-Feb-21 01:31N 59°06' E 010°14'0 0.0
2018-Feb-21 01:01N 59°06' E 010°14'0 0.0
2018-Feb-21 00:31N 59°06' E 010°14'0 0.0
2018-Feb-21 00:01N 59°06' E 010°14'0 0.0
2018-Feb-20 23:31N 59°06' E 010°14'0 0.0
2018-Feb-20 23:01N 59°06' E 010°14'0 0.0
2018-Feb-20 22:30N 59°06' E 010°14'0 0.0
2018-Feb-20 21:59N 59°06' E 010°14'0 0.0
2018-Feb-20 21:31N 59°06' E 010°14'0 0.0
2018-Feb-20 21:01N 59°06' E 010°14'1 2.9
2018-Feb-20 20:31N 59°08' E 010°14'0 0.0
2018-Feb-20 20:00N 59°08' E 010°14'4 7.5
2018-Feb-20 19:31N 59°04' E 010°15'713.4
2018-Feb-20 19:01N 59°01' E 010°26'815.9
2018-Feb-20 18:31N 59°01' E 010°42'815.2
2018-Feb-20 18:00N 59°00' E 010°56'815.2
2018-Feb-20 17:30N 58°56' E 011°08'1 1.9
2018-Feb-20 17:01N 58°56' E 011°10'3 5.9
2018-Feb-20 16:31N 58°56' E 011°04'815.1
2018-Feb-20 16:01N 59°01' E 010°52'815.2
2018-Feb-20 15:30N 59°01' E 010°38'815.2
2018-Feb-20 15:01N 59°01' E 010°23'713.5
2018-Feb-20 14:31N 59°06' E 010°14'2 3.5
2018-Feb-20 14:01N 59°08' E 010°14'0 0.0
2018-Feb-20 13:31N 59°08' E 010°14'4 8.6
2018-Feb-20 13:01N 59°03' E 010°15'713.8
2018-Feb-20 12:30N 59°01' E 010°27'815.1
2018-Feb-20 12:01N 59°01' E 010°42'815.2
2018-Feb-20 11:31N 59°00' E 010°57'815.2
2018-Feb-20 11:01N 58°56' E 011°09'1 1.7
2018-Feb-20 10:30N 58°56' E 011°10'0 0.0
2018-Feb-20 10:01N 58°56' E 011°10'5 9.5
2018-Feb-20 09:30N 58°58' E 011°02'816.7
2018-Feb-20 09:01N 59°02' E 010°47'816.6
2018-Feb-20 08:31N 59°00' E 010°31'816.5
2018-Feb-20 08:01N 59°02' E 010°16'611.5
2018-Feb-20 07:30N 59°08' E 010°14'0 0.1
2018-Feb-20 07:00N 59°08' E 010°14'0 0.1
2018-Feb-20 06:31N 59°08' E 010°14'1 2.7
2018-Feb-20 05:59N 59°06' E 010°14'0 0.0
2018-Feb-20 05:29N 59°06' E 010°14'0 0.0
2018-Feb-20 05:00N 59°06' E 010°14'0 0.0
2018-Feb-20 04:30N 59°06' E 010°14'0 0.0
2018-Feb-20 04:00N 59°06' E 010°14'0 0.0
2018-Feb-20 03:28N 59°06' E 010°14'0 0.0
2018-Feb-20 02:58N 59°06' E 010°14'0 0.0
2018-Feb-20 02:28N 59°06' E 010°14'0 0.0
2018-Feb-20 01:59N 59°06' E 010°14'0 0.0
2018-Feb-20 01:29N 59°06' E 010°14'0 0.0
2018-Feb-20 00:59N 59°06' E 010°14'0 0.0
2018-Feb-20 00:30N 59°06' E 010°14'0 0.0
2018-Feb-20 00:00N 59°06' E 010°14'0 0.0
2018-Feb-19 23:30N 59°06' E 010°14'0 0.0
2018-Feb-19 22:58N 59°06' E 010°14'0 0.0
2018-Feb-19 22:28N 59°06' E 010°14'0 0.0
2018-Feb-19 21:58N 59°06' E 010°14'0 0.0
2018-Feb-19 21:30N 59°06' E 010°14'0 0.0
2018-Feb-19 21:00N 59°06' E 010°14'0 0.7
2018-Feb-19 20:31N 59°07' E 010°14'1 2.1
2018-Feb-19 20:00N 59°08' E 010°14'3 6.3
2018-Feb-19 19:31N 59°05' E 010°15'713.1
2018-Feb-19 19:00N 59°01' E 010°25'815.7
2018-Feb-19 18:30N 59°01' E 010°40'815.7
2018-Feb-19 18:01N 59°00' E 010°56'815.6
2018-Feb-19 17:31N 58°56' E 011°08'1 2.3
2018-Feb-19 17:01N 58°56' E 011°10'3 6.0
2018-Feb-19 16:30N 58°56' E 011°04'815.4
2018-Feb-19 16:00N 59°01' E 010°52'815.5
2018-Feb-19 15:30N 59°01' E 010°37'816.2
2018-Feb-19 15:01N 59°01' E 010°21'713.4
2018-Feb-19 14:30N 59°06' E 010°14'1 2.4
2018-Feb-19 14:00N 59°08' E 010°14'0 0.0
2018-Feb-19 13:30N 59°08' E 010°14'4 8.4
2018-Feb-19 13:01N 59°04' E 010°15'713.5
2018-Feb-19 12:30N 59°01' E 010°27'815.5
2018-Feb-19 12:00N 59°02' E 010°42'815.2
2018-Feb-19 11:31N 59°01' E 010°56'815.9
2018-Feb-19 11:00N 58°56' E 011°08'1 1.8
2018-Feb-19 10:31N 58°56' E 011°10'0 0.0
2018-Feb-19 10:01N 58°56' E 011°10'510.0
2018-Feb-19 09:30N 58°58' E 011°02'815.8
2018-Feb-19 09:00N 59°02' E 010°48'815.4
2018-Feb-19 08:30N 59°01' E 010°33'816.0
2018-Feb-19 08:01N 59°01' E 010°17'612.4
2018-Feb-19 07:30N 59°07' E 010°14'0 0.3
2018-Feb-19 07:00N 59°08' E 010°14'1 2.2
2018-Feb-19 06:30N 59°06' E 010°14'0 0.7
2018-Feb-19 06:00N 59°06' E 010°14'0 0.0
2018-Feb-19 05:29N 59°06' E 010°14'0 0.0
2018-Feb-19 04:59N 59°06' E 010°14'0 0.0
2018-Feb-19 04:29N 59°06' E 010°14'0 0.0
2018-Feb-19 04:00N 59°06' E 010°14'0 0.0
2018-Feb-19 03:30N 59°06' E 010°14'0 0.0
2018-Feb-19 03:00N 59°06' E 010°14'0 0.0
2018-Feb-19 02:28N 59°06' E 010°14'0 0.0
2018-Feb-19 01:58N 59°06' E 010°14'0 0.0
2018-Feb-19 01:28N 59°06' E 010°14'0 0.0
2018-Feb-19 00:59N 59°06' E 010°14'0 0.0
2018-Feb-19 00:29N 59°06' E 010°14'0 0.0
2018-Feb-18 23:59N 59°06' E 010°14'0 0.0
2018-Feb-18 23:30N 59°06' E 010°14'0 0.0
2018-Feb-18 23:00N 59°06' E 010°14'0 0.0
2018-Feb-18 22:30N 59°06' E 010°14'0 0.0
2018-Feb-18 21:58N 59°06' E 010°14'0 0.0
2018-Feb-18 21:28N 59°06' E 010°14'0 0.0
2018-Feb-18 20:58N 59°06' E 010°14'0 0.0
2018-Feb-18 20:31N 59°06' E 010°14'1 2.8
2018-Feb-18 20:00N 59°08' E 010°14'4 7.1
2018-Feb-18 19:30N 59°04' E 010°15'714.0
2018-Feb-18 19:00N 59°01' E 010°27'815.8
2018-Feb-18 18:31N 59°01' E 010°42'815.6
2018-Feb-18 18:01N 59°00' E 010°57'714.9
2018-Feb-18 17:31N 58°56' E 011°09'1 1.5
2018-Feb-18 17:00N 58°56' E 011°10'3 6.4
2018-Feb-18 16:31N 58°57' E 011°04'714.0
2018-Feb-18 16:01N 59°01' E 010°53'714.3
2018-Feb-18 15:31N 59°01' E 010°39'816.2
2018-Feb-18 15:01N 59°01' E 010°23'713.2
2018-Feb-18 14:30N 59°05' E 010°14'2 4.3
2018-Feb-18 14:00N 59°08' E 010°14'0 0.0
2018-Feb-18 13:31N 59°08' E 010°14'4 7.3
2018-Feb-18 13:00N 59°04' E 010°15'713.9
2018-Feb-18 12:31N 59°01' E 010°27'815.1
2018-Feb-18 12:01N 59°01' E 010°41'715.0
2018-Feb-18 11:31N 59°00' E 010°56'815.7
2018-Feb-18 11:01N 58°56' E 011°08'1 2.0
2018-Feb-18 10:31N 58°56' E 011°10'0 0.0
2018-Feb-18 10:01N 58°56' E 011°10'5 9.2
2018-Feb-18 09:31N 58°58' E 011°02'815.1
2018-Feb-18 09:01N 59°01' E 010°49'815.5
2018-Feb-18 08:31N 59°01' E 010°34'816.6
2018-Feb-18 08:01N 59°01' E 010°18'612.4
2018-Feb-18 07:30N 59°07' E 010°14'0 0.8
2018-Feb-18 07:01N 59°08' E 010°14'0 1.0
2018-Feb-18 06:30N 59°07' E 010°14'1 1.9
2018-Feb-18 06:00N 59°06' E 010°14'0 0.0
2018-Feb-18 05:30N 59°06' E 010°14'0 0.0
2018-Feb-18 04:58N 59°06' E 010°14'0 0.0
2018-Feb-18 04:28N 59°06' E 010°14'0 0.0
2018-Feb-18 03:58N 59°06' E 010°14'0 0.0
2018-Feb-18 03:23N 59°06' E 010°14'0 0.0
2018-Feb-18 02:59N 59°06' E 010°14'0 0.0
2018-Feb-18 02:29N 59°06' E 010°14'0 0.0
2018-Feb-18 02:00N 59°06' E 010°14'0 0.0
2018-Feb-18 01:30N 59°06' E 010°14'0 0.0
2018-Feb-18 01:00N 59°06' E 010°14'0 0.0
2018-Feb-18 00:30N 59°06' E 010°14'0 0.0
2018-Feb-18 00:01N 59°06' E 010°14'0 0.0
2018-Feb-17 23:31N 59°06' E 010°14'0 0.0
2018-Feb-17 23:01N 59°06' E 010°14'0 0.0
2018-Feb-17 22:31N 59°06' E 010°14'0 0.0
2018-Feb-17 22:00N 59°06' E 010°14'0 0.0
2018-Feb-17 21:30N 59°06' E 010°14'0 0.0
2018-Feb-17 21:01N 59°06' E 010°14'1 2.6
2018-Feb-17 20:30N 59°07' E 010°14'0 0.2
2018-Feb-17 20:01N 59°08' E 010°14'3 6.3
2018-Feb-17 19:31N 59°04' E 010°15'713.5
2018-Feb-17 19:01N 59°01' E 010°26'816.2
2018-Feb-17 18:31N 59°01' E 010°42'815.5
2018-Feb-17 18:01N 59°00' E 010°57'815.2
2018-Feb-17 17:31N 58°56' E 011°08'1 1.8
2018-Feb-17 17:00N 58°56' E 011°10'3 6.2
2018-Feb-17 16:31N 58°57' E 011°04'714.5
2018-Feb-17 16:01N 59°01' E 010°53'815.3
2018-Feb-17 15:31N 59°01' E 010°38'815.5
2018-Feb-17 15:01N 59°01' E 010°23'713.5
2018-Feb-17 14:30N 59°06' E 010°14'2 3.3
2018-Feb-17 14:00N 59°08' E 010°14'0 0.0
2018-Feb-17 13:30N 59°08' E 010°14'4 7.4
2018-Feb-17 13:01N 59°04' E 010°15'713.5
2018-Feb-17 12:31N 59°01' E 010°26'815.5
2018-Feb-17 12:01N 59°01' E 010°41'714.9
2018-Feb-17 11:31N 59°00' E 010°56'815.7
2018-Feb-17 11:01N 58°56' E 011°08'1 1.9
2018-Feb-17 10:31N 58°56' E 011°10'0 0.0
2018-Feb-17 10:01N 58°56' E 011°10'612.4
2018-Feb-17 09:31N 58°59' E 010°60'816.6
2018-Feb-17 09:00N 59°02' E 010°44'817.0
2018-Feb-17 08:31N 59°01' E 010°28'714.9
2018-Feb-17 08:01N 59°04' E 010°15'4 7.8
2018-Feb-17 07:30N 59°08' E 010°14'0 0.0
2018-Feb-17 07:00N 59°08' E 010°14'1 1.6
2018-Feb-17 06:30N 59°07' E 010°14'1 1.3
2018-Feb-17 06:00N 59°06' E 010°14'0 0.0
2018-Feb-17 05:28N 59°06' E 010°14'0 0.0
2018-Feb-17 04:58N 59°06' E 010°14'0 0.0
2018-Feb-17 04:28N 59°06' E 010°14'0 0.0
2018-Feb-17 03:59N 59°06' E 010°14'0 0.0
2018-Feb-17 03:29N 59°06' E 010°14'0 0.0
2018-Feb-17 02:59N 59°06' E 010°14'0 0.0
2018-Feb-17 02:30N 59°06' E 010°14'0 0.0
2018-Feb-17 02:00N 59°06' E 010°14'0 0.0
2018-Feb-17 01:30N 59°06' E 010°14'0 0.0
2018-Feb-17 00:58N 59°06' E 010°14'0 0.0
2018-Feb-17 00:28N 59°06' E 010°14'0 0.0
2018-Feb-16 23:58N 59°06' E 010°14'0 0.0
2018-Feb-16 23:29N 59°06' E 010°14'0 0.0
2018-Feb-16 22:59N 59°06' E 010°14'0 0.0
2018-Feb-16 22:29N 59°06' E 010°14'0 0.0
2018-Feb-16 22:00N 59°06' E 010°14'0 0.0
2018-Feb-16 21:30N 59°06' E 010°14'0 0.0
2018-Feb-16 21:00N 59°06' E 010°14'1 1.6
2018-Feb-16 20:30N 59°07' E 010°14'1 1.3
2018-Feb-16 20:01N 59°08' E 010°14'3 6.3
2018-Feb-16 19:30N 59°04' E 010°15'612.9
2018-Feb-16 19:01N 59°01' E 010°25'815.7
2018-Feb-16 18:31N 59°01' E 010°40'815.8
2018-Feb-16 18:01N 59°00' E 010°56'815.6
2018-Feb-16 17:31N 58°56' E 011°08'1 2.2
2018-Feb-16 17:00N 58°56' E 011°10'3 5.6
2018-Feb-16 16:31N 58°56' E 011°05'714.8
2018-Feb-16 16:01N 59°01' E 010°53'815.1
2018-Feb-16 15:31N 59°01' E 010°38'815.7
2018-Feb-16 15:01N 59°01' E 010°23'713.4
2018-Feb-16 14:30N 59°06' E 010°14'2 4.1
2018-Feb-16 14:01N 59°08' E 010°14'0 0.0
2018-Feb-16 13:30N 59°08' E 010°14'4 7.9
2018-Feb-16 13:01N 59°04' E 010°15'714.1
2018-Feb-16 12:31N 59°01' E 010°27'815.8
2018-Feb-16 12:01N 59°01' E 010°43'815.8
2018-Feb-16 11:31N 58°60' E 010°58'714.4
2018-Feb-16 11:01N 58°56' E 011°09'0 0.8
2018-Feb-16 10:31N 58°56' E 011°10'0 0.0
2018-Feb-16 10:00N 58°56' E 011°10'5 9.9
2018-Feb-16 09:31N 58°58' E 011°02'815.4
2018-Feb-16 09:00N 59°02' E 010°48'815.9
2018-Feb-16 08:30N 59°01' E 010°33'815.8
2018-Feb-16 08:00N 59°01' E 010°18'612.5
2018-Feb-16 07:30N 59°07' E 010°14'0 0.5
2018-Feb-16 07:01N 59°08' E 010°14'1 2.3
2018-Feb-16 06:31N 59°06' E 010°14'0 0.6
2018-Feb-16 06:00N 59°06' E 010°14'0 0.0
2018-Feb-16 05:30N 59°06' E 010°14'0 0.0
2018-Feb-16 05:01N 59°06' E 010°14'0 0.0
2018-Feb-16 04:30N 59°06' E 010°14'0 0.0
2018-Feb-16 04:00N 59°06' E 010°14'0 0.0
2018-Feb-16 03:31N 59°06' E 010°14'0 0.0
2018-Feb-16 03:01N 59°06' E 010°14'0 0.0
2018-Feb-16 02:30N 59°06' E 010°14'0 0.0
2018-Feb-16 02:00N 59°06' E 010°14'0 0.0
2018-Feb-16 01:30N 59°06' E 010°14'0 0.0
2018-Feb-16 01:00N 59°06' E 010°14'  

Dump ship's entire track history